Overview Statistics Trail Chart Weather Telemetry Raw packets
 

This is the latest recevied weather packets stored in our database for station/object DJ2KUA-6. If no packets are shown the sender has not sent any weather packets the latest 10 day(s).

<< 12 13 14 15 16 17 18 >>
Time Temp. Humidity Pressure Rain* Wind** Luminosity Snow
1788221614 16.67° C 84% 1073 hPa 0 mm - - -
1788220473 16.11° C 84% 1073 hPa 0 mm - - -
1788219333 16.11° C 83% 1073 hPa 0 mm - - -
1788218192 16.11° C 83% 1072 hPa 0 mm - - -
1788217055 16.67° C 82% 1072 hPa 0 mm - - -
1788215913 16.67° C 81% 1072 hPa 0 mm - - -
1788214773 17.22° C 79% 1072 hPa 0 mm - - -
1788213631 17.78° C 76% 1072 hPa 0 mm - - -
1788211353 18.89° C 75% 1072 hPa 0 mm - - -
1788210213 18.89° C 74% 1072 hPa 0 mm - - -
1788209072 18.89° C 74% 1072 hPa 0 mm - - -
1788207933 18.89° C 73% 1072 hPa 0 mm - - -
1788206791 19.44° C 73% 1072 hPa 0 mm - - -
1788205652 18.89° C 76% 1071 hPa 0 mm - - -
1788204513 18.89° C 77% 1071 hPa 0 mm - - -
1788203375 18.89° C 77% 1070 hPa 0 mm - - -
1788202233 18.89° C 77% 1070 hPa 0 mm - - -
1788201093 18.89° C 77% 1070 hPa 0 mm - - -
1788199954 19.44° C 75% 1070 hPa 0 mm - - -
1788198812 20° C 73% 1070 hPa 0 mm - - -
1788197674 20.56° C 72% 1070 hPa 0 mm - - -
1788196532 20.56° C 71% 1069 hPa 0 mm - - -
1788195393 21.11° C 71% 1069 hPa 0 mm - - -
1788194255 21.11° C 72% 1069 hPa 0 mm - - -
1788193113 21.11° C 71% 1069 hPa 0 mm - - -

* Rain latest hour (hover to see other rain measurements)
** Current wind speed in m/s (hover to see current wind gust speed)